sensor_id;sensor_type;location;lat;lon;timestamp;P1;durP1;ratioP1;P2;durP2;ratioP2
64832;SDS011;51290;45.060;38.948;2023-05-10T00:55:17;1.70;;;1.60;;
64832;SDS011;51290;45.060;38.948;2023-05-10T00:57:43;3.50;;;2.10;;
64832;SDS011;51290;45.060;38.948;2023-05-10T01:00:10;3.40;;;2.35;;
64832;SDS011;51290;45.060;38.948;2023-05-10T01:02:37;2.80;;;2.10;;
64832;SDS011;51290;45.060;38.948;2023-05-10T05:05:00;3.55;;;2.00;;
64832;SDS011;51290;45.060;38.948;2023-05-10T05:07:26;1.80;;;1.38;;
64832;SDS011;51290;45.060;38.948;2023-05-10T05:31:45;2.60;;;1.70;;
64832;SDS011;51290;45.060;38.948;2023-05-10T05:36:37;2.08;;;1.65;;
64832;SDS011;51290;45.060;38.948;2023-05-10T05:39:06;2.88;;;2.10;;
64832;SDS011;51290;45.060;38.948;2023-05-10T05:41:32;2.72;;;1.90;;
64832;SDS011;51290;45.060;38.948;2023-05-10T05:43:58;2.15;;;1.63;;
64832;SDS011;51290;45.060;38.948;2023-05-10T05:46:24;2.65;;;1.95;;
64832;SDS011;51290;45.060;38.948;2023-05-10T05:48:50;1.98;;;1.73;;
64832;SDS011;51290;45.060;38.948;2023-05-10T05:51:16;2.80;;;2.20;;
64832;SDS011;51290;45.060;38.948;2023-05-10T07:40:42;2.17;;;1.55;;
64832;SDS011;51290;45.060;38.948;2023-05-10T07:43:08;1.70;;;1.38;;
64832;SDS011;51290;45.060;38.948;2023-05-10T07:45:35;1.70;;;1.60;;
64832;SDS011;51290;45.060;38.948;2023-05-10T07:48:01;2.38;;;2.00;;
64832;SDS011;51290;45.060;38.948;2023-05-10T07:50:27;1.50;;;1.40;;
64832;SDS011;51290;45.060;38.948;2023-05-10T07:52:53;1.75;;;1.20;;
64832;SDS011;51290;45.060;38.948;2023-05-10T07:55:19;1.60;;;1.42;;
64832;SDS011;51290;45.060;38.948;2023-05-10T07:57:46;1.45;;;1.35;;
64832;SDS011;51290;45.060;38.948;2023-05-10T08:00:12;1.45;;;1.35;;
64832;SDS011;51290;45.060;38.948;2023-05-10T08:02:42;1.88;;;1.77;;
64832;SDS011;51290;45.060;38.948;2023-05-10T08:05:07;2.53;;;1.85;;
64832;SDS011;51290;45.060;38.948;2023-05-10T08:07:33;2.80;;;1.70;;
64832;SDS011;51290;45.060;38.948;2023-05-10T08:09:59;1.50;;;1.40;;
64832;SDS011;51290;45.060;38.948;2023-05-10T08:12:25;1.95;;;1.45;;
64832;SDS011;51290;45.060;38.948;2023-05-10T08:14:51;1.60;;;1.48;;
64832;SDS011;51290;45.060;38.948;2023-05-10T08:17:17;2.33;;;1.58;;
64832;SDS011;51290;45.060;38.948;2023-05-10T08:19:45;1.58;;;1.25;;
64832;SDS011;51290;45.060;38.948;2023-05-10T08:22:11;1.27;;;1.17;;
64832;SDS011;51290;45.060;38.948;2023-05-10T08:24:37;1.50;;;1.35;;
64832;SDS011;51290;45.060;38.948;2023-05-10T08:27:07;2.10;;;1.52;;
64832;SDS011;51290;45.060;38.948;2023-05-10T08:29:33;1.42;;;1.33;;
64832;SDS011;51290;45.060;38.948;2023-05-10T08:32:00;1.52;;;1.30;;
64832;SDS011;51290;45.060;38.948;2023-05-10T08:34:26;1.38;;;1.27;;
64832;SDS011;51290;45.060;38.948;2023-05-10T08:36:52;3.78;;;1.73;;
64832;SDS011;51290;45.060;38.948;2023-05-10T08:39:18;6.72;;;1.88;;
64832;SDS011;51290;45.060;38.948;2023-05-10T08:41:44;1.60;;;1.50;;
64832;SDS011;51290;45.060;38.948;2023-05-10T08:44:13;2.05;;;1.67;;
64832;SDS011;51290;45.060;38.948;2023-05-10T08:46:40;1.23;;;1.13;;
64832;SDS011;51290;45.060;38.948;2023-05-10T08:49:11;1.45;;;1.25;;
64832;SDS011;51290;45.060;38.948;2023-05-10T08:51:42;1.75;;;1.65;;
64832;SDS011;51290;45.060;38.948;2023-05-10T08:54:12;1.33;;;1.23;;
64832;SDS011;51290;45.060;38.948;2023-05-10T08:56:38;1.08;;;1.08;;
64832;SDS011;51290;45.060;38.948;2023-05-10T08:59:05;0.98;;;0.98;;
64832;SDS011;51290;45.060;38.948;2023-05-10T09:01:31;1.55;;;1.45;;
64832;SDS011;51290;45.060;38.948;2023-05-10T09:03:58;1.83;;;1.38;;
64832;SDS011;51290;45.060;38.948;2023-05-10T09:06:24;2.25;;;1.70;;
64832;SDS011;51290;45.060;38.948;2023-05-10T09:08:51;1.63;;;1.33;;
64832;SDS011;51290;45.060;38.948;2023-05-10T09:11:17;0.88;;;0.88;;
64832;SDS011;51290;45.060;38.948;2023-05-10T09:13:46;1.58;;;1.48;;
64832;SDS011;51290;45.060;38.948;2023-05-10T09:16:15;2.88;;;1.63;;
64832;SDS011;51290;45.060;38.948;2023-05-10T09:18:41;3.05;;;2.17;;
64832;SDS011;51290;45.060;38.948;2023-05-10T09:21:07;1.58;;;1.48;;
64832;SDS011;51290;45.060;38.948;2023-05-10T09:23:35;2.20;;;1.50;;
64832;SDS011;51290;45.060;38.948;2023-05-10T09:26:04;1.33;;;1.23;;
64832;SDS011;51290;45.060;38.948;2023-05-10T09:28:31;1.10;;;0.98;;
64832;SDS011;51290;45.060;38.948;2023-05-10T09:31:15;1.90;;;1.60;;
64832;SDS011;51290;45.060;38.948;2023-05-10T09:33:44;1.38;;;1.27;;
64832;SDS011;51290;45.060;38.948;2023-05-10T09:36:12;1.40;;;1.25;;
64832;SDS011;51290;45.060;38.948;2023-05-10T09:38:45;1.67;;;1.30;;
64832;SDS011;51290;45.060;38.948;2023-05-10T09:41:21;1.15;;;1.08;;
64832;SDS011;51290;45.060;38.948;2023-05-10T09:43:48;1.40;;;1.30;;
64832;SDS011;51290;45.060;38.948;2023-05-10T09:46:15;1.60;;;1.23;;
64832;SDS011;51290;45.060;38.948;2023-05-10T09:48:45;1.40;;;1.17;;
64832;SDS011;51290;45.060;38.948;2023-05-10T09:51:21;1.48;;;1.23;;
64832;SDS011;51290;45.060;38.948;2023-05-10T09:53:48;1.67;;;1.30;;
64832;SDS011;51290;45.060;38.948;2023-05-10T09:56:37;1.23;;;1.13;;
64832;SDS011;51290;45.060;38.948;2023-05-10T09:59:05;1.30;;;1.20;;
64832;SDS011;51290;45.060;38.948;2023-05-10T10:01:34;1.20;;;1.20;;
64832;SDS011;51290;45.060;38.948;2023-05-10T10:04:04;1.50;;;1.40;;
64832;SDS011;51290;45.060;38.948;2023-05-10T10:06:37;2.10;;;1.60;;
64832;SDS011;51290;45.060;38.948;2023-05-10T10:09:07;1.42;;;1.33;;
64832;SDS011;51290;45.060;38.948;2023-05-10T10:11:35;1.23;;;1.23;;
64832;SDS011;51290;45.060;38.948;2023-05-10T10:14:02;3.58;;;1.60;;
64832;SDS011;51290;45.060;38.948;2023-05-10T10:16:31;3.70;;;1.52;;
64832;SDS011;51290;45.060;38.948;2023-05-10T10:18:58;7.22;;;1.55;;
64832;SDS011;51290;45.060;38.948;2023-05-10T10:21:24;1.95;;;1.40;;
64832;SDS011;51290;45.060;38.948;2023-05-10T10:23:50;0.70;;;0.70;;
64832;SDS011;51290;45.060;38.948;2023-05-10T10:26:17;1.27;;;1.17;;
64832;SDS011;51290;45.060;38.948;2023-05-10T10:34:15;1.90;;;1.52;;
64832;SDS011;51290;45.060;38.948;2023-05-10T10:36:52;1.27;;;1.23;;
64832;SDS011;51290;45.060;38.948;2023-05-10T10:39:19;1.50;;;1.40;;
64832;SDS011;51290;45.060;38.948;2023-05-10T10:44:22;1.33;;;1.17;;
64832;SDS011;51290;45.060;38.948;2023-05-10T10:47:21;1.15;;;1.05;;
64832;SDS011;51290;45.060;38.948;2023-05-10T10:49:50;1.67;;;1.27;;
64832;SDS011;51290;45.060;38.948;2023-05-10T10:52:43;3.15;;;1.20;;
64832;SDS011;51290;45.060;38.948;2023-05-10T10:55:14;3.35;;;1.33;;
64832;SDS011;51290;45.060;38.948;2023-05-10T10:57:47;1.10;;;1.10;;
64832;SDS011;51290;45.060;38.948;2023-05-10T11:00:30;2.28;;;1.40;;
64832;SDS011;51290;45.060;38.948;2023-05-10T11:03:06;1.13;;;1.05;;
64832;SDS011;51290;45.060;38.948;2023-05-10T11:05:39;1.35;;;1.25;;
64832;SDS011;51290;45.060;38.948;2023-05-10T11:10:36;1.40;;;1.30;;
64832;SDS011;51290;45.060;38.948;2023-05-10T11:13:03;1.45;;;1.35;;
64832;SDS011;51290;45.060;38.948;2023-05-10T11:15:35;4.78;;;1.20;;
64832;SDS011;51290;45.060;38.948;2023-05-10T11:18:19;1.15;;;1.08;;
64832;SDS011;51290;45.060;38.948;2023-05-10T11:20:52;1.38;;;1.27;;
64832;SDS011;51290;45.060;38.948;2023-05-10T11:23:23;1.38;;;1.27;;
64832;SDS011;51290;45.060;38.948;2023-05-10T11:25:49;1.30;;;1.20;;
64832;SDS011;51290;45.060;38.948;2023-05-10T11:28:18;1.85;;;0.95;;
64832;SDS011;51290;45.060;38.948;2023-05-10T11:30:44;1.30;;;1.20;;
64832;SDS011;51290;45.060;38.948;2023-05-10T11:33:15;1.38;;;1.27;;
64832;SDS011;51290;45.060;38.948;2023-05-10T11:35:42;1.30;;;1.00;;
64832;SDS011;51290;45.060;38.948;2023-05-10T11:38:09;1.40;;;1.30;;
64832;SDS011;51290;45.060;38.948;2023-05-10T11:40:36;2.00;;;1.67;;
64832;SDS011;51290;45.060;38.948;2023-05-10T11:43:04;1.60;;;1.13;;
64832;SDS011;51290;45.060;38.948;2023-05-10T11:45:34;1.52;;;1.42;;
64832;SDS011;51290;45.060;38.948;2023-05-10T11:48:00;1.10;;;1.10;;
64832;SDS011;51290;45.060;38.948;2023-05-10T11:50:28;1.52;;;1.40;;
64832;SDS011;51290;45.060;38.948;2023-05-10T11:52:54;1.40;;;1.30;;
64832;SDS011;51290;45.060;38.948;2023-05-10T11:55:22;1.63;;;1.52;;
64832;SDS011;51290;45.060;38.948;2023-05-10T11:57:54;1.58;;;1.33;;
64832;SDS011;51290;45.060;38.948;2023-05-10T12:00:20;1.75;;;1.30;;
64832;SDS011;51290;45.060;38.948;2023-05-10T12:02:47;1.50;;;1.40;;
64832;SDS011;51290;45.060;38.948;2023-05-10T12:05:14;1.65;;;1.40;;
64832;SDS011;51290;45.060;38.948;2023-05-10T12:07:41;1.52;;;1.42;;
64832;SDS011;51290;45.060;38.948;2023-05-10T12:10:08;1.38;;;1.27;;
64832;SDS011;51290;45.060;38.948;2023-05-10T12:12:39;1.40;;;1.30;;
64832;SDS011;51290;45.060;38.948;2023-05-10T12:15:23;2.53;;;1.42;;
64832;SDS011;51290;45.060;38.948;2023-05-10T12:17:50;2.08;;;1.35;;
64832;SDS011;51290;45.060;38.948;2023-05-10T12:20:23;1.52;;;1.42;;
64832;SDS011;51290;45.060;38.948;2023-05-10T12:22:50;1.58;;;1.08;;
64832;SDS011;51290;45.060;38.948;2023-05-10T12:25:21;1.13;;;1.02;;
64832;SDS011;51290;45.060;38.948;2023-05-10T12:27:52;0.95;;;0.95;;
64832;SDS011;51290;45.060;38.948;2023-05-10T12:32:52;1.65;;;1.13;;
64832;SDS011;51290;45.060;38.948;2023-05-10T12:35:19;2.20;;;1.55;;
64832;SDS011;51290;45.060;38.948;2023-05-10T12:37:50;1.40;;;1.30;;
64832;SDS011;51290;45.060;38.948;2023-05-10T12:40:16;1.27;;;1.17;;
64832;SDS011;51290;45.060;38.948;2023-05-10T12:42:42;0.82;;;0.82;;
64832;SDS011;51290;45.060;38.948;2023-05-10T12:45:11;1.02;;;0.98;;
64832;SDS011;51290;45.060;38.948;2023-05-10T12:47:38;1.45;;;1.30;;
64832;SDS011;51290;45.060;38.948;2023-05-10T12:50:04;1.20;;;1.10;;
64832;SDS011;51290;45.060;38.948;2023-05-10T12:52:31;2.20;;;1.73;;
64832;SDS011;51290;45.060;38.948;2023-05-10T12:54:57;1.88;;;1.65;;
64832;SDS011;51290;45.060;38.948;2023-05-10T12:57:24;1.45;;;1.30;;
64832;SDS011;51290;45.060;38.948;2023-05-10T12:59:50;1.98;;;1.67;;
64832;SDS011;51290;45.060;38.948;2023-05-10T13:02:16;1.80;;;1.48;;
64832;SDS011;51290;45.060;38.948;2023-05-10T13:04:47;2.20;;;1.85;;
64832;SDS011;51290;45.060;38.948;2023-05-10T13:07:13;1.40;;;1.33;;
64832;SDS011;51290;45.060;38.948;2023-05-10T13:09:40;1.67;;;1.58;;
64832;SDS011;51290;45.060;38.948;2023-05-10T13:12:05;2.17;;;1.35;;
64832;SDS011;51290;45.060;38.948;2023-05-10T13:14:31;2.05;;;1.85;;
64832;SDS011;51290;45.060;38.948;2023-05-10T13:16:57;1.55;;;1.42;;
64832;SDS011;51290;45.060;38.948;2023-05-10T13:19:23;2.15;;;1.63;;
64832;SDS011;51290;45.060;38.948;2023-05-10T13:21:49;2.30;;;1.60;;
64832;SDS011;51290;45.060;38.948;2023-05-10T13:24:15;1.73;;;1.63;;
64832;SDS011;51290;45.060;38.948;2023-05-10T13:26:42;1.63;;;1.38;;
64832;SDS011;51290;45.060;38.948;2023-05-10T13:29:08;1.58;;;1.25;;
64832;SDS011;51290;45.060;38.948;2023-05-10T13:31:35;1.90;;;1.48;;
64832;SDS011;51290;45.060;38.948;2023-05-10T13:34:01;1.52;;;1.42;;
64832;SDS011;51290;45.060;38.948;2023-05-10T13:36:27;2.67;;;1.02;;
64832;SDS011;51290;45.060;38.948;2023-05-10T13:38:54;1.70;;;1.58;;
64832;SDS011;51290;45.060;38.948;2023-05-10T13:41:20;2.60;;;1.38;;
64832;SDS011;51290;45.060;38.948;2023-05-10T13:43:46;2.97;;;1.77;;
64832;SDS011;51290;45.060;38.948;2023-05-10T13:46:13;3.60;;;1.75;;
64832;SDS011;51290;45.060;38.948;2023-05-10T13:48:39;3.35;;;1.75;;
64832;SDS011;51290;45.060;38.948;2023-05-10T13:51:05;1.02;;;1.02;;
64832;SDS011;51290;45.060;38.948;2023-05-10T13:53:31;1.98;;;1.70;;
64832;SDS011;51290;45.060;38.948;2023-05-10T13:55:57;1.00;;;1.00;;
64832;SDS011;51290;45.060;38.948;2023-05-10T13:58:23;1.63;;;1.48;;
64832;SDS011;51290;45.060;38.948;2023-05-10T14:00:49;1.75;;;1.50;;
64832;SDS011;51290;45.060;38.948;2023-05-10T14:03:15;5.80;;;1.67;;
64832;SDS011;51290;45.060;38.948;2023-05-10T14:05:42;2.13;;;1.77;;
64832;SDS011;51290;45.060;38.948;2023-05-10T14:08:08;2.88;;;2.00;;
64832;SDS011;51290;45.060;38.948;2023-05-10T14:10:35;1.88;;;1.48;;
64832;SDS011;51290;45.060;38.948;2023-05-10T14:13:02;2.58;;;1.38;;
64832;SDS011;51290;45.060;38.948;2023-05-10T14:15:28;1.75;;;1.65;;
64832;SDS011;51290;45.060;38.948;2023-05-10T14:17:54;2.95;;;1.67;;
64832;SDS011;51290;45.060;38.948;2023-05-10T14:20:20;1.35;;;1.25;;
64832;SDS011;51290;45.060;38.948;2023-05-10T14:22:46;1.40;;;1.25;;
64832;SDS011;51290;45.060;38.948;2023-05-10T14:25:12;1.95;;;1.48;;
64832;SDS011;51290;45.060;38.948;2023-05-10T14:27:39;2.25;;;1.55;;
64832;SDS011;51290;45.060;38.948;2023-05-10T14:30:05;3.05;;;1.80;;
64832;SDS011;51290;45.060;38.948;2023-05-10T14:32:32;1.98;;;1.42;;
64832;SDS011;51290;45.060;38.948;2023-05-10T14:34:59;2.65;;;1.60;;
64832;SDS011;51290;45.060;38.948;2023-05-10T14:37:25;1.55;;;1.45;;
64832;SDS011;51290;45.060;38.948;2023-05-10T14:39:51;1.38;;;1.02;;
64832;SDS011;51290;45.060;38.948;2023-05-10T14:42:17;1.30;;;1.20;;
64832;SDS011;51290;45.060;38.948;2023-05-10T14:44:43;1.77;;;1.55;;
64832;SDS011;51290;45.060;38.948;2023-05-10T14:47:09;1.75;;;1.63;;
64832;SDS011;51290;45.060;38.948;2023-05-10T14:49:35;2.80;;;1.77;;
64832;SDS011;51290;45.060;38.948;2023-05-10T14:52:02;1.45;;;1.35;;
64832;SDS011;51290;45.060;38.948;2023-05-10T14:54:28;1.70;;;1.60;;
64832;SDS011;51290;45.060;38.948;2023-05-10T14:56:54;13.07;;;2.13;;
64832;SDS011;51290;45.060;38.948;2023-05-10T14:59:20;1.65;;;1.30;;
64832;SDS011;51290;45.060;38.948;2023-05-10T15:01:46;1.38;;;1.27;;
64832;SDS011;51290;45.060;38.948;2023-05-10T15:04:12;3.90;;;1.85;;
64832;SDS011;51290;45.060;38.948;2023-05-10T15:06:39;1.52;;;1.27;;
64832;SDS011;51290;45.060;38.948;2023-05-10T15:09:04;1.42;;;1.33;;
64832;SDS011;51290;45.060;38.948;2023-05-10T15:11:31;1.85;;;1.38;;
64832;SDS011;51290;45.060;38.948;2023-05-10T15:13:57;1.88;;;1.67;;
64832;SDS011;51290;45.060;38.948;2023-05-10T15:16:23;8.88;;;1.85;;
64832;SDS011;51290;45.060;38.948;2023-05-10T15:18:49;1.55;;;1.45;;
64832;SDS011;51290;45.060;38.948;2023-05-10T15:21:15;4.95;;;1.48;;
64832;SDS011;51290;45.060;38.948;2023-05-10T15:23:41;1.58;;;1.48;;
64832;SDS011;51290;45.060;38.948;2023-05-10T15:26:08;2.25;;;1.42;;
64832;SDS011;51290;45.060;38.948;2023-05-10T15:28:33;1.42;;;1.33;;
64832;SDS011;51290;45.060;38.948;2023-05-10T15:30:59;1.02;;;1.02;;
64832;SDS011;51290;45.060;38.948;2023-05-10T15:33:26;2.08;;;1.80;;
64832;SDS011;51290;45.060;38.948;2023-05-10T15:35:53;3.65;;;1.83;;
64832;SDS011;51290;45.060;38.948;2023-05-10T15:38:19;2.40;;;1.65;;
64832;SDS011;51290;45.060;38.948;2023-05-10T15:40:45;1.45;;;1.35;;
64832;SDS011;51290;45.060;38.948;2023-05-10T15:43:11;1.48;;;1.38;;
64832;SDS011;51290;45.060;38.948;2023-05-10T15:45:37;1.60;;;1.50;;
64832;SDS011;51290;45.060;38.948;2023-05-10T15:48:03;1.30;;;1.20;;
64832;SDS011;51290;45.060;38.948;2023-05-10T15:50:29;1.70;;;1.55;;
64832;SDS011;51290;45.060;38.948;2023-05-10T15:52:56;1.33;;;1.13;;
64832;SDS011;51290;45.060;38.948;2023-05-10T15:55:22;1.65;;;1.45;;
64832;SDS011;51290;45.060;38.948;2023-05-10T15:57:48;2.05;;;1.85;;
64832;SDS011;51290;45.060;38.948;2023-05-10T16:00:14;1.85;;;1.27;;
64832;SDS011;51290;45.060;38.948;2023-05-10T16:02:40;2.08;;;1.55;;
64832;SDS011;51290;45.060;38.948;2023-05-10T16:05:07;4.03;;;1.65;;
64832;SDS011;51290;45.060;38.948;2023-05-10T16:07:34;2.45;;;1.77;;
64832;SDS011;51290;45.060;38.948;2023-05-10T16:10:00;1.45;;;1.35;;
64832;SDS011;51290;45.060;38.948;2023-05-10T16:12:30;2.47;;;1.63;;
64832;SDS011;51290;45.060;38.948;2023-05-10T16:14:57;1.75;;;1.35;;
64832;SDS011;51290;45.060;38.948;2023-05-10T16:17:23;1.65;;;1.55;;
64832;SDS011;51290;45.060;38.948;2023-05-10T16:19:49;2.38;;;1.85;;
64832;SDS011;51290;45.060;38.948;2023-05-10T16:22:15;4.43;;;1.73;;
64832;SDS011;51290;45.060;38.948;2023-05-10T16:24:41;2.08;;;1.80;;
64832;SDS011;51290;45.060;38.948;2023-05-10T16:27:07;5.18;;;2.13;;
64832;SDS011;51290;45.060;38.948;2023-05-10T16:29:34;7.75;;;2.60;;
64832;SDS011;51290;45.060;38.948;2023-05-10T16:32:00;2.30;;;2.03;;
64832;SDS011;51290;45.060;38.948;2023-05-10T16:34:26;1.13;;;1.13;;
64832;SDS011;51290;45.060;38.948;2023-05-10T16:36:52;1.63;;;1.42;;
64832;SDS011;51290;45.060;38.948;2023-05-10T16:39:18;1.73;;;1.63;;
64832;SDS011;51290;45.060;38.948;2023-05-10T16:41:44;2.97;;;2.08;;
64832;SDS011;51290;45.060;38.948;2023-05-10T16:44:10;2.00;;;1.77;;
64832;SDS011;51290;45.060;38.948;2023-05-10T16:46:36;1.98;;;1.80;;
64832;SDS011;51290;45.060;38.948;2023-05-10T16:49:02;1.77;;;1.58;;
64832;SDS011;51290;45.060;38.948;2023-05-10T16:51:28;3.70;;;1.80;;
64832;SDS011;51290;45.060;38.948;2023-05-10T16:53:54;2.95;;;1.40;;
64832;SDS011;51290;45.060;38.948;2023-05-10T16:56:20;6.22;;;1.70;;
64832;SDS011;51290;45.060;38.948;2023-05-10T16:58:47;2.00;;;1.42;;
64832;SDS011;51290;45.060;38.948;2023-05-10T17:01:16;2.38;;;1.85;;
64832;SDS011;51290;45.060;38.948;2023-05-10T17:03:43;2.90;;;2.08;;
64832;SDS011;51290;45.060;38.948;2023-05-10T17:06:09;1.73;;;1.60;;
64832;SDS011;51290;45.060;38.948;2023-05-10T17:08:36;2.65;;;1.90;;
64832;SDS011;51290;45.060;38.948;2023-05-10T17:11:03;2.53;;;2.17;;
64832;SDS011;51290;45.060;38.948;2023-05-10T17:13:29;1.67;;;1.23;;
64832;SDS011;51290;45.060;38.948;2023-05-10T17:15:56;1.60;;;1.50;;
64832;SDS011;51290;45.060;38.948;2023-05-10T17:18:22;2.60;;;2.13;;
64832;SDS011;51290;45.060;38.948;2023-05-10T17:20:49;2.65;;;2.20;;
64832;SDS011;51290;45.060;38.948;2023-05-10T17:23:15;2.60;;;1.67;;
64832;SDS011;51290;45.060;38.948;2023-05-10T17:25:41;2.15;;;1.92;;
64832;SDS011;51290;45.060;38.948;2023-05-10T17:28:07;2.45;;;1.92;;
64832;SDS011;51290;45.060;38.948;2023-05-10T17:30:33;2.95;;;2.30;;
64832;SDS011;51290;45.060;38.948;2023-05-10T17:32:59;2.83;;;2.30;;
64832;SDS011;51290;45.060;38.948;2023-05-10T17:35:26;3.08;;;2.35;;
64832;SDS011;51290;45.060;38.948;2023-05-10T17:37:52;5.43;;;3.00;;
64832;SDS011;51290;45.060;38.948;2023-05-10T17:40:18;3.33;;;2.25;;
64832;SDS011;51290;45.060;38.948;2023-05-10T17:42:44;4.20;;;2.65;;
64832;SDS011;51290;45.060;38.948;2023-05-10T17:45:10;4.88;;;3.10;;
64832;SDS011;51290;45.060;38.948;2023-05-10T17:47:36;2.88;;;2.38;;
64832;SDS011;51290;45.060;38.948;2023-05-10T17:50:03;4.68;;;2.75;;
64832;SDS011;51290;45.060;38.948;2023-05-10T17:52:29;7.07;;;3.05;;
64832;SDS011;51290;45.060;38.948;2023-05-10T17:54:55;6.05;;;3.63;;
64832;SDS011;51290;45.060;38.948;2023-05-10T17:57:21;7.60;;;2.60;;
64832;SDS011;51290;45.060;38.948;2023-05-10T17:59:49;15.93;;;3.15;;
64832;SDS011;51290;45.060;38.948;2023-05-10T18:02:15;5.97;;;2.60;;
64832;SDS011;51290;45.060;38.948;2023-05-10T18:04:43;5.18;;;2.53;;
64832;SDS011;51290;45.060;38.948;2023-05-10T18:07:10;4.20;;;2.75;;
64832;SDS011;51290;45.060;38.948;2023-05-10T18:09:36;7.32;;;2.78;;
64832;SDS011;51290;45.060;38.948;2023-05-10T18:12:02;4.35;;;2.75;;
64832;SDS011;51290;45.060;38.948;2023-05-10T18:14:29;4.78;;;2.63;;
64832;SDS011;51290;45.060;38.948;2023-05-10T18:16:55;7.53;;;3.88;;
64832;SDS011;51290;45.060;38.948;2023-05-10T18:19:34;10.60;;;3.13;;
64832;SDS011;51290;45.060;38.948;2023-05-10T18:22:09;9.18;;;3.13;;
64832;SDS011;51290;45.060;38.948;2023-05-10T18:24:35;4.30;;;3.13;;
64832;SDS011;51290;45.060;38.948;2023-05-10T18:27:01;4.28;;;3.30;;
64832;SDS011;51290;45.060;38.948;2023-05-10T18:29:28;4.65;;;3.33;;
64832;SDS011;51290;45.060;38.948;2023-05-10T18:31:54;6.63;;;3.55;;
64832;SDS011;51290;45.060;38.948;2023-05-10T18:34:20;7.25;;;4.15;;
64832;SDS011;51290;45.060;38.948;2023-05-10T18:36:46;3.10;;;2.67;;
64832;SDS011;51290;45.060;38.948;2023-05-10T18:39:12;11.02;;;3.88;;
64832;SDS011;51290;45.060;38.948;2023-05-10T18:41:38;6.97;;;3.42;;
64832;SDS011;51290;45.060;38.948;2023-05-10T18:44:04;5.35;;;3.67;;
64832;SDS011;51290;45.060;38.948;2023-05-10T18:46:30;7.95;;;4.05;;
64832;SDS011;51290;45.060;38.948;2023-05-10T18:48:57;12.52;;;3.45;;
64832;SDS011;51290;45.060;38.948;2023-05-10T18:51:23;9.73;;;4.10;;
64832;SDS011;51290;45.060;38.948;2023-05-10T18:53:50;6.60;;;3.50;;
64832;SDS011;51290;45.060;38.948;2023-05-10T18:56:16;5.20;;;2.80;;
64832;SDS011;51290;45.060;38.948;2023-05-10T18:58:42;4.93;;;3.75;;
64832;SDS011;51290;45.060;38.948;2023-05-10T19:01:08;7.32;;;4.13;;
64832;SDS011;51290;45.060;38.948;2023-05-10T19:03:34;8.80;;;4.32;;
64832;SDS011;51290;45.060;38.948;2023-05-10T19:06:01;6.60;;;4.43;;
64832;SDS011;51290;45.060;38.948;2023-05-10T19:08:27;6.32;;;3.67;;
64832;SDS011;51290;45.060;38.948;2023-05-10T19:10:53;4.88;;;3.50;;
64832;SDS011;51290;45.060;38.948;2023-05-10T19:13:19;6.82;;;4.35;;
64832;SDS011;51290;45.060;38.948;2023-05-10T19:15:45;10.50;;;4.22;;
64832;SDS011;51290;45.060;38.948;2023-05-10T19:18:11;5.13;;;3.63;;
64832;SDS011;51290;45.060;38.948;2023-05-10T19:20:37;7.50;;;3.97;;
64832;SDS011;51290;45.060;38.948;2023-05-10T19:23:03;9.43;;;4.03;;
64832;SDS011;51290;45.060;38.948;2023-05-10T19:25:29;12.10;;;6.30;;
64832;SDS011;51290;45.060;38.948;2023-05-10T19:27:55;10.07;;;4.43;;
64832;SDS011;51290;45.060;38.948;2023-05-10T19:30:24;6.72;;;3.63;;
64832;SDS011;51290;45.060;38.948;2023-05-10T19:32:50;7.95;;;3.92;;
64832;SDS011;51290;45.060;38.948;2023-05-10T19:35:16;5.97;;;3.60;;
64832;SDS011;51290;45.060;38.948;2023-05-10T19:37:43;7.25;;;4.47;;
64832;SDS011;51290;45.060;38.948;2023-05-10T19:40:12;4.20;;;3.63;;
64832;SDS011;51290;45.060;38.948;2023-05-10T19:42:40;7.07;;;4.20;;
64832;SDS011;51290;45.060;38.948;2023-05-10T19:45:09;6.95;;;4.30;;
64832;SDS011;51290;45.060;38.948;2023-05-10T19:47:36;7.57;;;4.43;;
64832;SDS011;51290;45.060;38.948;2023-05-10T19:50:02;7.90;;;4.82;;
64832;SDS011;51290;45.060;38.948;2023-05-10T19:52:28;13.55;;;4.55;;
64832;SDS011;51290;45.060;38.948;2023-05-10T19:54:54;7.75;;;4.43;;
64832;SDS011;51290;45.060;38.948;2023-05-10T19:57:20;6.47;;;4.13;;
64832;SDS011;51290;45.060;38.948;2023-05-10T19:59:46;7.13;;;4.45;;
64832;SDS011;51290;45.060;38.948;2023-05-10T20:02:12;6.13;;;3.95;;
64832;SDS011;51290;45.060;38.948;2023-05-10T20:04:39;8.68;;;5.28;;
64832;SDS011;51290;45.060;38.948;2023-05-10T20:07:05;9.07;;;4.50;;
64832;SDS011;51290;45.060;38.948;2023-05-10T20:09:31;6.63;;;4.13;;
64832;SDS011;51290;45.060;38.948;2023-05-10T20:11:57;8.23;;;4.28;;
64832;SDS011;51290;45.060;38.948;2023-05-10T20:14:23;6.78;;;4.28;;
64832;SDS011;51290;45.060;38.948;2023-05-10T20:16:49;5.45;;;3.88;;
64832;SDS011;51290;45.060;38.948;2023-05-10T20:19:15;6.13;;;4.47;;
64832;SDS011;51290;45.060;38.948;2023-05-10T20:21:41;6.50;;;3.78;;
64832;SDS011;51290;45.060;38.948;2023-05-10T20:24:07;7.20;;;4.45;;
64832;SDS011;51290;45.060;38.948;2023-05-10T20:26:34;10.25;;;5.72;;
64832;SDS011;51290;45.060;38.948;2023-05-10T20:29:00;7.00;;;4.10;;
64832;SDS011;51290;45.060;38.948;2023-05-10T20:31:26;8.48;;;4.90;;
64832;SDS011;51290;45.060;38.948;2023-05-10T20:33:52;7.38;;;4.20;;
64832;SDS011;51290;45.060;38.948;2023-05-10T20:36:17;7.93;;;4.78;;
64832;SDS011;51290;45.060;38.948;2023-05-10T20:38:44;10.35;;;4.97;;
64832;SDS011;51290;45.060;38.948;2023-05-10T20:41:10;7.57;;;5.10;;
64832;SDS011;51290;45.060;38.948;2023-05-10T20:43:36;10.88;;;4.57;;
64832;SDS011;51290;45.060;38.948;2023-05-10T20:46:02;6.60;;;4.75;;
64832;SDS011;51290;45.060;38.948;2023-05-10T20:48:30;7.05;;;4.47;;
64832;SDS011;51290;45.060;38.948;2023-05-10T20:50:57;6.38;;;4.07;;
64832;SDS011;51290;45.060;38.948;2023-05-10T20:53:23;6.00;;;3.88;;
64832;SDS011;51290;45.060;38.948;2023-05-10T20:55:49;11.77;;;5.20;;
64832;SDS011;51290;45.060;38.948;2023-05-10T20:58:15;8.18;;;4.80;;
64832;SDS011;51290;45.060;38.948;2023-05-10T21:00:41;7.50;;;3.97;;
64832;SDS011;51290;45.060;38.948;2023-05-10T21:03:07;6.93;;;3.88;;
64832;SDS011;51290;45.060;38.948;2023-05-10T21:05:33;5.88;;;3.25;;
64832;SDS011;51290;45.060;38.948;2023-05-10T21:07:59;6.22;;;4.53;;
64832;SDS011;51290;45.060;38.948;2023-05-10T21:10:25;6.75;;;4.47;;
64832;SDS011;51290;45.060;38.948;2023-05-10T21:12:53;9.30;;;4.47;;
64832;SDS011;51290;45.060;38.948;2023-05-10T21:15:20;9.75;;;4.18;;
64832;SDS011;51290;45.060;38.948;2023-05-10T21:17:49;5.60;;;3.95;;
64832;SDS011;51290;45.060;38.948;2023-05-10T21:20:18;6.05;;;3.55;;
64832;SDS011;51290;45.060;38.948;2023-05-10T21:22:44;7.90;;;4.65;;
64832;SDS011;51290;45.060;38.948;2023-05-10T21:25:10;8.45;;;4.78;;
64832;SDS011;51290;45.060;38.948;2023-05-10T21:27:36;6.85;;;4.15;;
64832;SDS011;51290;45.060;38.948;2023-05-10T21:30:02;8.48;;;5.40;;
64832;SDS011;51290;45.060;38.948;2023-05-10T21:32:28;7.95;;;4.90;;
64832;SDS011;51290;45.060;38.948;2023-05-10T21:34:54;6.60;;;4.22;;
64832;SDS011;51290;45.060;38.948;2023-05-10T21:37:20;8.80;;;4.28;;
64832;SDS011;51290;45.060;38.948;2023-05-10T21:39:46;6.95;;;4.00;;
64832;SDS011;51290;45.060;38.948;2023-05-10T21:42:12;7.50;;;4.38;;
64832;SDS011;51290;45.060;38.948;2023-05-10T21:44:38;6.07;;;4.15;;
64832;SDS011;51290;45.060;38.948;2023-05-10T21:47:04;8.15;;;4.35;;
64832;SDS011;51290;45.060;38.948;2023-05-10T21:49:29;7.10;;;4.43;;
64832;SDS011;51290;45.060;38.948;2023-05-10T21:51:55;6.47;;;4.93;;